sensor_id;sensor_type;location;lat;lon;timestamp;temperature;humidity
17172;DHT22;8701;50.150;8.756;2023-02-02T00:03:30;7.40;99.90
17172;DHT22;8701;50.150;8.756;2023-02-02T00:07:38;7.40;99.90
17172;DHT22;8701;50.150;8.756;2023-02-02T00:11:42;7.30;99.90
17172;DHT22;8701;50.150;8.756;2023-02-02T00:15:45;7.30;99.90
17172;DHT22;8701;50.150;8.756;2023-02-02T00:19:47;7.30;99.90
17172;DHT22;8701;50.150;8.756;2023-02-02T00:23:50;7.30;99.90
17172;DHT22;8701;50.150;8.756;2023-02-02T00:27:54;7.30;99.90
17172;DHT22;8701;50.150;8.756;2023-02-02T00:32:05;7.30;99.90
17172;DHT22;8701;50.150;8.756;2023-02-02T00:36:07;7.30;99.90
17172;DHT22;8701;50.150;8.756;2023-02-02T00:40:10;7.30;99.90
17172;DHT22;8701;50.150;8.756;2023-02-02T00:44:14;7.30;99.90
17172;DHT22;8701;50.150;8.756;2023-02-02T00:48:34;7.30;99.90
17172;DHT22;8701;50.150;8.756;2023-02-02T00:52:43;7.30;99.90
17172;DHT22;8701;50.150;8.756;2023-02-02T00:56:45;7.30;99.90
17172;DHT22;8701;50.150;8.756;2023-02-02T01:00:49;7.40;99.90
17172;DHT22;8701;50.150;8.756;2023-02-02T01:04:52;7.40;99.90
17172;DHT22;8701;50.150;8.756;2023-02-02T01:08:55;7.60;99.90
17172;DHT22;8701;50.150;8.756;2023-02-02T01:12:57;7.40;99.90
17172;DHT22;8701;50.150;8.756;2023-02-02T01:17:01;7.40;99.90
17172;DHT22;8701;50.150;8.756;2023-02-02T01:21:05;7.50;99.90
17172;DHT22;8701;50.150;8.756;2023-02-02T01:25:08;7.50;99.90
17172;DHT22;8701;50.150;8.756;2023-02-02T01:29:10;7.50;99.90
17172;DHT22;8701;50.150;8.756;2023-02-02T01:33:14;7.50;99.90
17172;DHT22;8701;50.150;8.756;2023-02-02T01:37:17;7.70;99.90
17172;DHT22;8701;50.150;8.756;2023-02-02T01:41:21;7.50;99.90
17172;DHT22;8701;50.150;8.756;2023-02-02T01:45:33;7.40;99.90
17172;DHT22;8701;50.150;8.756;2023-02-02T01:49:42;7.40;99.90
17172;DHT22;8701;50.150;8.756;2023-02-02T01:53:45;7.30;99.90
17172;DHT22;8701;50.150;8.756;2023-02-02T01:57:52;7.30;99.90
17172;DHT22;8701;50.150;8.756;2023-02-02T02:01:56;7.20;99.90
17172;DHT22;8701;50.150;8.756;2023-02-02T02:06:08;7.20;99.90
17172;DHT22;8701;50.150;8.756;2023-02-02T02:10:11;7.20;99.90
17172;DHT22;8701;50.150;8.756;2023-02-02T02:14:14;7.20;99.90
17172;DHT22;8701;50.150;8.756;2023-02-02T02:18:43;7.30;99.90
17172;DHT22;8701;50.150;8.756;2023-02-02T02:23:11;7.20;99.90
17172;DHT22;8701;50.150;8.756;2023-02-02T02:28:08;7.20;99.90
17172;DHT22;8701;50.150;8.756;2023-02-02T02:32:23;7.20;99.90
17172;DHT22;8701;50.150;8.756;2023-02-02T02:36:35;7.30;99.90
17172;DHT22;8701;50.150;8.756;2023-02-02T02:40:54;7.30;99.90
17172;DHT22;8701;50.150;8.756;2023-02-02T02:45:00;7.30;99.90
17172;DHT22;8701;50.150;8.756;2023-02-02T02:49:08;7.30;99.90
17172;DHT22;8701;50.150;8.756;2023-02-02T02:53:14;7.30;99.90
17172;DHT22;8701;50.150;8.756;2023-02-02T02:57:33;7.30;99.90
17172;DHT22;8701;50.150;8.756;2023-02-02T03:01:56;7.30;99.90
17172;DHT22;8701;50.150;8.756;2023-02-02T03:06:11;7.30;99.90
17172;DHT22;8701;50.150;8.756;2023-02-02T03:10:18;7.30;99.90
17172;DHT22;8701;50.150;8.756;2023-02-02T03:14:22;7.40;99.90
17172;DHT22;8701;50.150;8.756;2023-02-02T03:18:27;7.30;99.90
17172;DHT22;8701;50.150;8.756;2023-02-02T03:22:31;7.30;99.90
17172;DHT22;8701;50.150;8.756;2023-02-02T03:26:33;7.30;99.90
17172;DHT22;8701;50.150;8.756;2023-02-02T03:30:36;7.30;99.90
17172;DHT22;8701;50.150;8.756;2023-02-02T03:34:39;7.20;99.90
17172;DHT22;8701;50.150;8.756;2023-02-02T03:38:42;7.30;99.90
17172;DHT22;8701;50.150;8.756;2023-02-02T03:43:00;7.30;99.90
17172;DHT22;8701;50.150;8.756;2023-02-02T03:47:03;7.30;99.90
17172;DHT22;8701;50.150;8.756;2023-02-02T03:51:06;7.30;99.90
17172;DHT22;8701;50.150;8.756;2023-02-02T03:55:10;7.30;99.90
17172;DHT22;8701;50.150;8.756;2023-02-02T03:59:12;7.30;99.90
17172;DHT22;8701;50.150;8.756;2023-02-02T04:03:14;7.30;99.90
17172;DHT22;8701;50.150;8.756;2023-02-02T04:07:17;7.30;99.90
17172;DHT22;8701;50.150;8.756;2023-02-02T04:11:31;7.20;99.90
17172;DHT22;8701;50.150;8.756;2023-02-02T04:15:34;7.20;99.90
17172;DHT22;8701;50.150;8.756;2023-02-02T04:19:36;7.30;99.90
17172;DHT22;8701;50.150;8.756;2023-02-02T04:23:38;7.30;99.90
17172;DHT22;8701;50.150;8.756;2023-02-02T04:27:42;7.30;99.90
17172;DHT22;8701;50.150;8.756;2023-02-02T04:31:44;7.30;99.90
17172;DHT22;8701;50.150;8.756;2023-02-02T04:35:46;7.30;99.90
17172;DHT22;8701;50.150;8.756;2023-02-02T04:39:48;7.30;99.90
17172;DHT22;8701;50.150;8.756;2023-02-02T04:43:53;7.30;99.90
17172;DHT22;8701;50.150;8.756;2023-02-02T04:47:55;7.30;99.90
17172;DHT22;8701;50.150;8.756;2023-02-02T04:51:59;7.20;99.90
17172;DHT22;8701;50.150;8.756;2023-02-02T04:56:04;7.40;99.90
17172;DHT22;8701;50.150;8.756;2023-02-02T05:00:10;7.40;99.90
17172;DHT22;8701;50.150;8.756;2023-02-02T05:04:13;7.40;99.90
17172;DHT22;8701;50.150;8.756;2023-02-02T05:08:15;7.40;99.90
17172;DHT22;8701;50.150;8.756;2023-02-02T05:12:17;7.40;99.90
17172;DHT22;8701;50.150;8.756;2023-02-02T05:16:32;7.40;99.90
17172;DHT22;8701;50.150;8.756;2023-02-02T05:20:35;7.60;99.90
17172;DHT22;8701;50.150;8.756;2023-02-02T05:24:37;7.40;99.90
17172;DHT22;8701;50.150;8.756;2023-02-02T05:28:39;7.50;99.90
17172;DHT22;8701;50.150;8.756;2023-02-02T05:32:44;7.50;99.90
17172;DHT22;8701;50.150;8.756;2023-02-02T05:36:46;7.50;99.90
17172;DHT22;8701;50.150;8.756;2023-02-02T05:40:49;7.50;99.90
17172;DHT22;8701;50.150;8.756;2023-02-02T05:44:51;7.50;99.90
17172;DHT22;8701;50.150;8.756;2023-02-02T05:48:55;7.50;99.90
17172;DHT22;8701;50.150;8.756;2023-02-02T05:52:58;7.50;99.90
17172;DHT22;8701;50.150;8.756;2023-02-02T05:57:01;7.50;99.90
17172;DHT22;8701;50.150;8.756;2023-02-02T06:01:03;7.50;99.90
17172;DHT22;8701;50.150;8.756;2023-02-02T06:05:08;7.50;99.90
17172;DHT22;8701;50.150;8.756;2023-02-02T06:09:10;7.50;99.90
17172;DHT22;8701;50.150;8.756;2023-02-02T06:13:12;7.50;99.90
17172;DHT22;8701;50.150;8.756;2023-02-02T06:17:19;7.50;99.90
17172;DHT22;8701;50.150;8.756;2023-02-02T06:21:23;7.50;99.90
17172;DHT22;8701;50.150;8.756;2023-02-02T06:25:25;7.40;99.90
17172;DHT22;8701;50.150;8.756;2023-02-02T06:29:27;7.40;99.90
17172;DHT22;8701;50.150;8.756;2023-02-02T06:33:29;7.30;99.90
17172;DHT22;8701;50.150;8.756;2023-02-02T06:37:48;7.40;99.90
17172;DHT22;8701;50.150;8.756;2023-02-02T06:41:50;7.40;99.90
17172;DHT22;8701;50.150;8.756;2023-02-02T06:45:53;7.30;99.90
17172;DHT22;8701;50.150;8.756;2023-02-02T06:49:55;7.40;99.90
17172;DHT22;8701;50.150;8.756;2023-02-02T06:53:59;7.40;99.90
17172;DHT22;8701;50.150;8.756;2023-02-02T06:58:05;7.40;99.90
17172;DHT22;8701;50.150;8.756;2023-02-02T07:02:13;7.40;99.90
17172;DHT22;8701;50.150;8.756;2023-02-02T07:06:17;7.60;99.90
17172;DHT22;8701;50.150;8.756;2023-02-02T07:10:21;7.40;99.90
17172;DHT22;8701;50.150;8.756;2023-02-02T07:14:24;7.40;99.90
17172;DHT22;8701;50.150;8.756;2023-02-02T07:18:27;7.40;99.90
17172;DHT22;8701;50.150;8.756;2023-02-02T07:22:30;7.50;99.90
17172;DHT22;8701;50.150;8.756;2023-02-02T07:26:34;7.50;99.90
17172;DHT22;8701;50.150;8.756;2023-02-02T07:30:37;7.50;99.90
17172;DHT22;8701;50.150;8.756;2023-02-02T07:34:39;7.60;99.90
17172;DHT22;8701;50.150;8.756;2023-02-02T07:38:47;7.60;99.90
17172;DHT22;8701;50.150;8.756;2023-02-02T07:42:59;7.60;99.90
17172;DHT22;8701;50.150;8.756;2023-02-02T07:47:04;7.60;99.90
17172;DHT22;8701;50.150;8.756;2023-02-02T07:51:10;7.60;99.90
17172;DHT22;8701;50.150;8.756;2023-02-02T07:55:13;7.60;99.90
17172;DHT22;8701;50.150;8.756;2023-02-02T07:59:22;7.70;99.90
17172;DHT22;8701;50.150;8.756;2023-02-02T08:03:24;7.60;99.90
17172;DHT22;8701;50.150;8.756;2023-02-02T08:07:26;7.60;99.90
17172;DHT22;8701;50.150;8.756;2023-02-02T08:11:29;7.50;99.90
17172;DHT22;8701;50.150;8.756;2023-02-02T08:15:35;7.50;99.90
17172;DHT22;8701;50.150;8.756;2023-02-02T08:19:40;7.60;99.90
17172;DHT22;8701;50.150;8.756;2023-02-02T08:23:43;7.60;99.90
17172;DHT22;8701;50.150;8.756;2023-02-02T08:28:08;7.50;99.90
17172;DHT22;8701;50.150;8.756;2023-02-02T08:32:16;7.70;99.90
17172;DHT22;8701;50.150;8.756;2023-02-02T08:36:20;7.70;99.90
17172;DHT22;8701;50.150;8.756;2023-02-02T08:40:23;7.80;99.90
17172;DHT22;8701;50.150;8.756;2023-02-02T08:44:26;7.70;99.90
17172;DHT22;8701;50.150;8.756;2023-02-02T08:48:30;7.80;99.90
17172;DHT22;8701;50.150;8.756;2023-02-02T08:52:33;7.80;99.90
17172;DHT22;8701;50.150;8.756;2023-02-02T08:56:41;7.80;99.90
17172;DHT22;8701;50.150;8.756;2023-02-02T09:00:44;7.80;99.90
17172;DHT22;8701;50.150;8.756;2023-02-02T09:04:47;7.90;99.90
17172;DHT22;8701;50.150;8.756;2023-02-02T09:08:51;7.90;99.90
17172;DHT22;8701;50.150;8.756;2023-02-02T09:12:56;7.90;99.90
17172;DHT22;8701;50.150;8.756;2023-02-02T09:16:58;8.00;99.90
17172;DHT22;8701;50.150;8.756;2023-02-02T09:21:04;8.00;99.90
17172;DHT22;8701;50.150;8.756;2023-02-02T09:25:13;8.00;99.90
17172;DHT22;8701;50.150;8.756;2023-02-02T09:29:16;8.00;99.90
17172;DHT22;8701;50.150;8.756;2023-02-02T09:33:19;8.00;99.90
17172;DHT22;8701;50.150;8.756;2023-02-02T09:37:25;8.00;99.90
17172;DHT22;8701;50.150;8.756;2023-02-02T09:46:25;8.00;99.90
17172;DHT22;8701;50.150;8.756;2023-02-02T09:50:53;8.10;99.90
17172;DHT22;8701;50.150;8.756;2023-02-02T09:55:02;8.00;99.90
17172;DHT22;8701;50.150;8.756;2023-02-02T09:59:17;8.00;99.90
17172;DHT22;8701;50.150;8.756;2023-02-02T10:03:24;8.00;99.90
17172;DHT22;8701;50.150;8.756;2023-02-02T10:07:32;8.00;99.90
17172;DHT22;8701;50.150;8.756;2023-02-02T10:11:43;8.20;99.90
17172;DHT22;8701;50.150;8.756;2023-02-02T10:15:52;8.00;99.90
17172;DHT22;8701;50.150;8.756;2023-02-02T10:20:20;8.00;99.90
17172;DHT22;8701;50.150;8.756;2023-02-02T10:24:28;8.10;99.90
17172;DHT22;8701;50.150;8.756;2023-02-02T10:28:41;8.20;99.90
17172;DHT22;8701;50.150;8.756;2023-02-02T10:32:47;8.30;99.90
17172;DHT22;8701;50.150;8.756;2023-02-02T10:37:01;8.50;99.90
17172;DHT22;8701;50.150;8.756;2023-02-02T10:41:14;8.70;99.90
17172;DHT22;8701;50.150;8.756;2023-02-02T10:45:21;8.60;99.90
17172;DHT22;8701;50.150;8.756;2023-02-02T10:49:28;8.60;99.90
17172;DHT22;8701;50.150;8.756;2023-02-02T10:53:32;8.60;99.90
17172;DHT22;8701;50.150;8.756;2023-02-02T10:57:59;9.00;99.90
17172;DHT22;8701;50.150;8.756;2023-02-02T11:02:08;8.70;99.90
17172;DHT22;8701;50.150;8.756;2023-02-02T11:06:11;8.80;99.90
17172;DHT22;8701;50.150;8.756;2023-02-02T11:10:32;8.80;99.90
17172;DHT22;8701;50.150;8.756;2023-02-02T11:14:38;8.90;99.90
17172;DHT22;8701;50.150;8.756;2023-02-02T11:18:43;8.90;99.90
17172;DHT22;8701;50.150;8.756;2023-02-02T11:22:46;8.80;99.90
17172;DHT22;8701;50.150;8.756;2023-02-02T11:26:50;8.90;99.90
17172;DHT22;8701;50.150;8.756;2023-02-02T11:30:56;8.90;99.90
17172;DHT22;8701;50.150;8.756;2023-02-02T11:35:18;8.90;99.90
17172;DHT22;8701;50.150;8.756;2023-02-02T11:39:31;9.00;99.90
17172;DHT22;8701;50.150;8.756;2023-02-02T11:43:36;8.70;99.90
17172;DHT22;8701;50.150;8.756;2023-02-02T11:47:41;8.70;99.90
17172;DHT22;8701;50.150;8.756;2023-02-02T11:51:55;8.70;99.90
17172;DHT22;8701;50.150;8.756;2023-02-02T11:56:01;8.60;99.90
17172;DHT22;8701;50.150;8.756;2023-02-02T12:00:16;8.60;99.90
17172;DHT22;8701;50.150;8.756;2023-02-02T12:04:23;8.60;99.90
17172;DHT22;8701;50.150;8.756;2023-02-02T12:08:30;8.60;99.90
17172;DHT22;8701;50.150;8.756;2023-02-02T12:12:40;8.60;99.90
17172;DHT22;8701;50.150;8.756;2023-02-02T12:16:53;8.70;99.90
17172;DHT22;8701;50.150;8.756;2023-02-02T12:21:03;8.60;99.90
17172;DHT22;8701;50.150;8.756;2023-02-02T12:25:27;8.70;99.90
17172;DHT22;8701;50.150;8.756;2023-02-02T12:30:00;8.70;99.90
17172;DHT22;8701;50.150;8.756;2023-02-02T12:34:14;8.70;99.90
17172;DHT22;8701;50.150;8.756;2023-02-02T12:38:26;8.70;99.90
17172;DHT22;8701;50.150;8.756;2023-02-02T12:42:40;8.70;99.90
17172;DHT22;8701;50.150;8.756;2023-02-02T12:46:57;8.60;99.90
17172;DHT22;8701;50.150;8.756;2023-02-02T12:51:13;8.60;99.90
17172;DHT22;8701;50.150;8.756;2023-02-02T12:55:24;8.80;99.90
17172;DHT22;8701;50.150;8.756;2023-02-02T12:59:45;8.70;99.90
17172;DHT22;8701;50.150;8.756;2023-02-02T13:04:05;8.60;99.90
17172;DHT22;8701;50.150;8.756;2023-02-02T13:08:17;8.60;99.90
17172;DHT22;8701;50.150;8.756;2023-02-02T13:12:23;8.60;99.90
17172;DHT22;8701;50.150;8.756;2023-02-02T13:16:28;8.60;99.90
17172;DHT22;8701;50.150;8.756;2023-02-02T13:20:37;8.70;99.90
17172;DHT22;8701;50.150;8.756;2023-02-02T13:24:43;8.70;99.90
17172;DHT22;8701;50.150;8.756;2023-02-02T13:28:50;8.70;99.90
17172;DHT22;8701;50.150;8.756;2023-02-02T13:32:57;8.70;99.90
17172;DHT22;8701;50.150;8.756;2023-02-02T13:37:07;8.70;99.90
17172;DHT22;8701;50.150;8.756;2023-02-02T13:41:13;8.70;99.90
17172;DHT22;8701;50.150;8.756;2023-02-02T13:45:44;8.70;99.90
17172;DHT22;8701;50.150;8.756;2023-02-02T13:49:51;8.80;99.90
17172;DHT22;8701;50.150;8.756;2023-02-02T13:54:11;9.00;99.90
17172;DHT22;8701;50.150;8.756;2023-02-02T13:58:30;8.80;99.90
17172;DHT22;8701;50.150;8.756;2023-02-02T14:02:40;8.90;99.90
17172;DHT22;8701;50.150;8.756;2023-02-02T14:07:06;8.90;99.90
17172;DHT22;8701;50.150;8.756;2023-02-02T14:11:17;8.90;99.90
17172;DHT22;8701;50.150;8.756;2023-02-02T14:15:36;9.00;99.90
17172;DHT22;8701;50.150;8.756;2023-02-02T14:19:54;9.20;99.90
17172;DHT22;8701;50.150;8.756;2023-02-02T14:23:59;9.20;99.90
17172;DHT22;8701;50.150;8.756;2023-02-02T14:28:07;9.00;99.90
17172;DHT22;8701;50.150;8.756;2023-02-02T14:32:40;9.00;99.90
17172;DHT22;8701;50.150;8.756;2023-02-02T14:36:55;9.10;99.90
17172;DHT22;8701;50.150;8.756;2023-02-02T14:41:05;9.10;99.90
17172;DHT22;8701;50.150;8.756;2023-02-02T14:45:21;9.10;99.90
17172;DHT22;8701;50.150;8.756;2023-02-02T14:49:26;9.40;99.90
17172;DHT22;8701;50.150;8.756;2023-02-02T14:53:36;9.50;99.90
17172;DHT22;8701;50.150;8.756;2023-02-02T14:57:40;9.50;99.90
17172;DHT22;8701;50.150;8.756;2023-02-02T15:01:43;9.60;99.90
17172;DHT22;8701;50.150;8.756;2023-02-02T15:06:01;9.50;99.90
17172;DHT22;8701;50.150;8.756;2023-02-02T15:10:06;9.40;99.90
17172;DHT22;8701;50.150;8.756;2023-02-02T15:14:15;9.30;99.90
17172;DHT22;8701;50.150;8.756;2023-02-02T15:18:25;9.20;99.90
17172;DHT22;8701;50.150;8.756;2023-02-02T15:22:34;9.10;99.90
17172;DHT22;8701;50.150;8.756;2023-02-02T15:26:40;9.00;99.90
17172;DHT22;8701;50.150;8.756;2023-02-02T15:30:49;9.00;99.90
17172;DHT22;8701;50.150;8.756;2023-02-02T15:34:54;8.90;99.90
17172;DHT22;8701;50.150;8.756;2023-02-02T15:39:03;9.00;99.90
17172;DHT22;8701;50.150;8.756;2023-02-02T15:43:11;8.90;99.90
17172;DHT22;8701;50.150;8.756;2023-02-02T15:47:17;8.90;99.90
17172;DHT22;8701;50.150;8.756;2023-02-02T15:51:20;8.80;99.90
17172;DHT22;8701;50.150;8.756;2023-02-02T15:55:29;9.00;99.90
17172;DHT22;8701;50.150;8.756;2023-02-02T15:59:38;8.90;99.90
17172;DHT22;8701;50.150;8.756;2023-02-02T16:03:48;8.90;99.90
17172;DHT22;8701;50.150;8.756;2023-02-02T16:07:51;8.90;99.90
17172;DHT22;8701;50.150;8.756;2023-02-02T16:11:54;8.90;99.90
17172;DHT22;8701;50.150;8.756;2023-02-02T16:15:58;9.00;99.90
17172;DHT22;8701;50.150;8.756;2023-02-02T16:20:08;8.90;99.90
17172;DHT22;8701;50.150;8.756;2023-02-02T16:24:16;8.90;99.90
17172;DHT22;8701;50.150;8.756;2023-02-02T16:28:21;9.00;99.90
17172;DHT22;8701;50.150;8.756;2023-02-02T16:32:29;9.00;99.90
17172;DHT22;8701;50.150;8.756;2023-02-02T16:36:33;8.90;99.90
17172;DHT22;8701;50.150;8.756;2023-02-02T16:40:36;9.00;99.90
17172;DHT22;8701;50.150;8.756;2023-02-02T16:44:39;9.00;99.90
17172;DHT22;8701;50.150;8.756;2023-02-02T16:48:45;9.10;99.90
17172;DHT22;8701;50.150;8.756;2023-02-02T16:53:03;8.90;99.90
17172;DHT22;8701;50.150;8.756;2023-02-02T16:57:14;9.00;99.90
17172;DHT22;8701;50.150;8.756;2023-02-02T17:01:17;9.60;99.90
17172;DHT22;8701;50.150;8.756;2023-02-02T17:05:23;9.00;99.90
17172;DHT22;8701;50.150;8.756;2023-02-02T17:09:33;8.90;99.90
17172;DHT22;8701;50.150;8.756;2023-02-02T17:13:39;9.40;99.90
17172;DHT22;8701;50.150;8.756;2023-02-02T17:33:52;9.00;99.90
17172;DHT22;8701;50.150;8.756;2023-02-02T17:37:55;9.00;99.90
17172;DHT22;8701;50.150;8.756;2023-02-02T17:41:58;9.00;99.90
17172;DHT22;8701;50.150;8.756;2023-02-02T17:46:02;9.00;99.90
17172;DHT22;8701;50.150;8.756;2023-02-02T17:50:07;9.00;99.90
17172;DHT22;8701;50.150;8.756;2023-02-02T17:54:10;9.00;99.90
17172;DHT22;8701;50.150;8.756;2023-02-02T17:58:13;9.00;99.90
17172;DHT22;8701;50.150;8.756;2023-02-02T18:02:17;9.00;99.90
17172;DHT22;8701;50.150;8.756;2023-02-02T18:06:35;9.00;99.90
17172;DHT22;8701;50.150;8.756;2023-02-02T18:10:38;9.00;99.90
17172;DHT22;8701;50.150;8.756;2023-02-02T18:14:42;8.90;99.90
17172;DHT22;8701;50.150;8.756;2023-02-02T18:18:45;9.10;99.90
17172;DHT22;8701;50.150;8.756;2023-02-02T18:22:51;9.00;99.90
17172;DHT22;8701;50.150;8.756;2023-02-02T18:26:53;9.40;99.90
17172;DHT22;8701;50.150;8.756;2023-02-02T18:30:56;9.10;99.90
17172;DHT22;8701;50.150;8.756;2023-02-02T18:34:59;9.10;99.90
17172;DHT22;8701;50.150;8.756;2023-02-02T18:39:04;9.10;99.90
17172;DHT22;8701;50.150;8.756;2023-02-02T18:43:06;9.00;99.90
17172;DHT22;8701;50.150;8.756;2023-02-02T18:47:09;9.10;99.90
17172;DHT22;8701;50.150;8.756;2023-02-02T18:51:13;9.00;99.90
17172;DHT22;8701;50.150;8.756;2023-02-02T18:55:21;9.00;99.90
17172;DHT22;8701;50.150;8.756;2023-02-02T18:59:31;8.90;99.90
17172;DHT22;8701;50.150;8.756;2023-02-02T19:03:38;9.00;99.90
17172;DHT22;8701;50.150;8.756;2023-02-02T19:07:41;9.00;99.90
17172;DHT22;8701;50.150;8.756;2023-02-02T19:12:08;8.90;99.90
17172;DHT22;8701;50.150;8.756;2023-02-02T19:16:19;8.90;99.90
17172;DHT22;8701;50.150;8.756;2023-02-02T19:20:25;8.90;99.90
17172;DHT22;8701;50.150;8.756;2023-02-02T19:24:38;8.90;99.90
17172;DHT22;8701;50.150;8.756;2023-02-02T19:28:42;8.90;99.90
17172;DHT22;8701;50.150;8.756;2023-02-02T19:32:44;8.90;99.90
17172;DHT22;8701;50.150;8.756;2023-02-02T19:36:48;8.90;99.90
17172;DHT22;8701;50.150;8.756;2023-02-02T19:41:13;8.90;99.90
17172;DHT22;8701;50.150;8.756;2023-02-02T19:45:22;8.90;99.90
17172;DHT22;8701;50.150;8.756;2023-02-02T19:49:31;8.90;99.90
17172;DHT22;8701;50.150;8.756;2023-02-02T19:53:35;8.90;99.90
17172;DHT22;8701;50.150;8.756;2023-02-02T19:57:38;8.80;99.90
17172;DHT22;8701;50.150;8.756;2023-02-02T20:01:46;8.80;99.90
17172;DHT22;8701;50.150;8.756;2023-02-02T20:05:51;8.80;99.90
17172;DHT22;8701;50.150;8.756;2023-02-02T20:09:54;8.80;99.90
17172;DHT22;8701;50.150;8.756;2023-02-02T20:14:19;8.80;99.90
17172;DHT22;8701;50.150;8.756;2023-02-02T20:18:36;8.80;99.90
17172;DHT22;8701;50.150;8.756;2023-02-02T20:22:44;8.80;99.90
17172;DHT22;8701;50.150;8.756;2023-02-02T20:26:57;8.80;99.90
17172;DHT22;8701;50.150;8.756;2023-02-02T20:31:27;8.80;99.90
17172;DHT22;8701;50.150;8.756;2023-02-02T20:35:39;8.70;99.90
17172;DHT22;8701;50.150;8.756;2023-02-02T20:39:45;8.70;99.90
17172;DHT22;8701;50.150;8.756;2023-02-02T20:43:49;8.70;99.90
17172;DHT22;8701;50.150;8.756;2023-02-02T20:47:52;8.70;99.90
17172;DHT22;8701;50.150;8.756;2023-02-02T20:51:58;8.90;99.90
17172;DHT22;8701;50.150;8.756;2023-02-02T20:56:00;8.70;99.90
17172;DHT22;8701;50.150;8.756;2023-02-02T21:00:04;8.70;99.90
17172;DHT22;8701;50.150;8.756;2023-02-02T21:04:07;8.70;99.90
17172;DHT22;8701;50.150;8.756;2023-02-02T21:08:13;8.50;99.90
17172;DHT22;8701;50.150;8.756;2023-02-02T21:12:16;8.60;99.90
17172;DHT22;8701;50.150;8.756;2023-02-02T21:16:22;8.60;99.90
17172;DHT22;8701;50.150;8.756;2023-02-02T21:20:24;8.60;99.90
17172;DHT22;8701;50.150;8.756;2023-02-02T21:24:28;8.60;99.90
17172;DHT22;8701;50.150;8.756;2023-02-02T21:28:30;8.60;99.90
17172;DHT22;8701;50.150;8.756;2023-02-02T21:32:36;8.60;99.90
17172;DHT22;8701;50.150;8.756;2023-02-02T21:36:43;8.60;99.90
17172;DHT22;8701;50.150;8.756;2023-02-02T21:40:47;8.50;99.90
17172;DHT22;8701;50.150;8.756;2023-02-02T21:44:55;8.40;99.90
17172;DHT22;8701;50.150;8.756;2023-02-02T21:48:59;8.40;99.90
17172;DHT22;8701;50.150;8.756;2023-02-02T21:53:17;8.40;99.90
17172;DHT22;8701;50.150;8.756;2023-02-02T21:57:24;8.20;99.90
17172;DHT22;8701;50.150;8.756;2023-02-02T22:01:32;8.40;99.90
17172;DHT22;8701;50.150;8.756;2023-02-02T22:05:39;8.40;99.90
17172;DHT22;8701;50.150;8.756;2023-02-02T22:09:43;8.30;99.90
17172;DHT22;8701;50.150;8.756;2023-02-02T22:13:48;8.40;99.90
17172;DHT22;8701;50.150;8.756;2023-02-02T22:17:50;8.30;99.90
17172;DHT22;8701;50.150;8.756;2023-02-02T22:22:01;8.30;99.90
17172;DHT22;8701;50.150;8.756;2023-02-02T22:26:24;8.30;99.90
17172;DHT22;8701;50.150;8.756;2023-02-02T22:30:35;8.50;99.90
17172;DHT22;8701;50.150;8.756;2023-02-02T22:34:44;8.30;99.90
17172;DHT22;8701;50.150;8.756;2023-02-02T22:38:51;8.30;99.90
17172;DHT22;8701;50.150;8.756;2023-02-02T22:42:59;8.30;99.90
17172;DHT22;8701;50.150;8.756;2023-02-02T22:47:03;8.20;99.90
17172;DHT22;8701;50.150;8.756;2023-02-02T22:51:10;8.10;99.90
17172;DHT22;8701;50.150;8.756;2023-02-02T22:55:13;8.20;99.90
17172;DHT22;8701;50.150;8.756;2023-02-02T22:59:15;8.20;99.90
17172;DHT22;8701;50.150;8.756;2023-02-02T23:03:19;8.10;99.90
17172;DHT22;8701;50.150;8.756;2023-02-02T23:07:21;8.20;99.90
17172;DHT22;8701;50.150;8.756;2023-02-02T23:11:23;8.20;99.90
17172;DHT22;8701;50.150;8.756;2023-02-02T23:15:26;8.30;99.90
17172;DHT22;8701;50.150;8.756;2023-02-02T23:19:35;8.10;99.90
17172;DHT22;8701;50.150;8.756;2023-02-02T23:23:37;8.10;99.90
17172;DHT22;8701;50.150;8.756;2023-02-02T23:27:40;8.10;99.90
17172;DHT22;8701;50.150;8.756;2023-02-02T23:31:42;8.10;99.90
17172;DHT22;8701;50.150;8.756;2023-02-02T23:35:46;8.10;99.90
17172;DHT22;8701;50.150;8.756;2023-02-02T23:39:48;8.10;99.90
17172;DHT22;8701;50.150;8.756;2023-02-02T23:43:50;8.10;99.90
17172;DHT22;8701;50.150;8.756;2023-02-02T23:47:53;8.10;99.90
17172;DHT22;8701;50.150;8.756;2023-02-02T23:51:56;8.10;99.90
17172;DHT22;8701;50.150;8.756;2023-02-02T23:55:58;8.20;99.90
